Airfield :







YOU CAN JOIN US ON...

 
LOGIN :

Register | Disclaimer

   EN    FR    IT 

 









Legend :    VFR   Marginal VFR   IFR   Intensive IFR   Very Intensive IFR
Visi :
Ceiling :
>= 8 km
>= 3000ft
5 to 8 km
1000 to 3000 ft
1500m to 5 km
500 to 1000 ft
800 to 1500m
200 to 500 ft
< 800m
< 200 ft
Symbols :   Thunderstorms  Fog  Heavy snow  Heavy precipitations  Wind > 20 kt






- Airport Elevation : 22 ft
- IATA code : YDP


CYDP - Nain

CURRENT METAR :
  • 182300Z 04007KT 15SM -RA FEW006 BKN010 OVC018 02/01 A2995 RMK SF2SC4SC2 LAST STFD OBS/NXT 190800Z SLP142

EXPIRED METARs :
  • 182200Z 08014KT 15SM -RA FEW006 BKN009 OVC019 02/02 A2991 RMK SF2SF4SC2 SLP131
  • 182100Z 05008KT 15SM -SHRA FEW002 FEW007 BKN009 OVC022 03/03 A2988 RMK SF1SF2SC3SC3 SF TR VIS LWR E-SE SLP119

Expired Forecast.
CZQX FIR / North America



MET'MAP, your aeronautical weather chart ! - Copyright ORBIFLY December 2007 - Disclaimer

ORBIFLY MET'MAP TEAM :

Programming & Development : Alexandra Zaïnal
Concept & original design : Baudouin d'Aumeries
Assistance for programming : Marc-Olivier Méhu
Technical & hardware support : Manuel Goepfert

Contact : metmap@orbifly.com




SOURCES & CREDITS :

   NOAA